首页
METAR-TAF:

METAR-TAF

机场 :

Kbely

布拉格, 捷克共和国

纬度: 50-07-17N, 经度: 14-32-37E, 海拔: 286米

当前天气观测

该预报发布于53分钟前的15:00 UTC
风速12节,风向南转西南
温度 8°C
湿度 66%
气压 1006 hPa
能见度10公里或以上
散云层高于3000英尺
多云层高于24000英尺

METAR: LKKB 081500Z 20012KT 9999 SCT030 BKN240 08/02 Q1006 NOSIG

时间: 16:53 (15:53 UTC)

预报

该预报发布于4小时和53分钟前的11:00 UTC
预报有效从08日的 12点(UTC)到 09日的 12点(UTC)
风速16节,风向南转西南
能见度10公里或以上
多云层高于3200英尺
成为
从 08日的 12点(UTC)到 08日的 14点(UTC)
散云层高于4000英尺
短暂存在
从 08日的 12点(UTC)到 09日的 10点(UTC)
风速18节,风向西南,有时为32节阵风
成为
从 08日的 17点(UTC)到 08日的 19点(UTC)
多云层高于2500英尺
短暂存在
从 08日的 18点(UTC)到 09日的 06点(UTC)
能見度: 7000
多云层高于2000英尺

TAF: LKKB 081100Z 0812/0912 21016KT 9999 BKN032 BECMG 0812/0814 SCT040 TEMPO 0812/0910 23018G32KT BECMG 0817/0819 BKN025 TEMPO 0818/0906 7000 RA BKN020

超过4000个机场的气象观测和天气预报(METAR&TAF报告)。

可查询的气象台以黄色和红色小点在地图上表示。

将鼠标移到小点上方,可查看气象台名称。

然后点击查看天气观测和预报。

如需切换地图:点击带黑十字的绿色按钮放大地图;点击带横线的绿色按钮缩小地图;或者点击绿色箭头查看邻近地区的地图。


METAR-TAF: